createdAt,value
2023-05-22T00:01:23.606Z,14.05
2023-05-22T00:03:50.155Z,14.04
2023-05-22T00:06:16.700Z,14.04
2023-05-22T00:08:43.184Z,14.03
2023-05-22T00:11:09.685Z,14.03
2023-05-22T00:13:36.302Z,13.99
2023-05-22T00:16:03.007Z,13.98
2023-05-22T00:18:29.554Z,13.98
2023-05-22T00:20:56.073Z,13.96
2023-05-22T00:23:22.656Z,13.96
2023-05-22T00:25:49.174Z,13.94
2023-05-22T00:28:15.723Z,13.92
2023-05-22T00:30:42.440Z,13.89
2023-05-22T00:33:09.124Z,13.89
2023-05-22T00:35:36.033Z,13.85
2023-05-22T00:38:03.842Z,13.81
2023-05-22T00:40:30.419Z,13.81
2023-05-22T00:42:57.001Z,13.80
2023-05-22T00:45:23.515Z,13.77
2023-05-22T00:47:50.606Z,13.76
2023-05-22T00:50:18.895Z,13.72
2023-05-22T00:52:46.555Z,13.72
2023-05-22T00:55:15.214Z,13.69
2023-05-22T00:57:42.621Z,13.68
2023-05-22T01:00:10.100Z,13.67
2023-05-22T01:02:37.616Z,13.67
2023-05-22T01:05:05.974Z,13.64
2023-05-22T01:07:34.282Z,13.60
2023-05-22T01:10:01.029Z,13.57
2023-05-22T01:12:38.140Z,13.50
2023-05-22T01:15:13.715Z,13.37
2023-05-22T01:17:50.624Z,13.39
2023-05-22T01:20:19.807Z,13.34
2023-05-22T01:23:08.332Z,13.27
2023-05-22T01:25:47.447Z,13.16
2023-05-22T01:28:39.191Z,13.09
2023-05-22T01:31:07.465Z,13.03
2023-05-22T01:33:42.158Z,12.92
2023-05-22T01:36:12.719Z,12.86
2023-05-22T01:38:41.503Z,12.79
2023-05-22T01:41:08.844Z,12.75
2023-05-22T01:43:36.646Z,12.69
2023-05-22T01:46:03.372Z,12.65
2023-05-22T01:48:29.912Z,12.61
2023-05-22T01:51:02.792Z,12.50
2023-05-22T01:53:59.512Z,12.52
2023-05-22T01:56:33.997Z,12.41
2023-05-22T01:59:17.739Z,12.41
2023-05-22T02:01:45.702Z,12.38
2023-05-22T02:04:13.550Z,12.25
2023-05-22T02:06:42.642Z,12.27
2023-05-22T02:09:10.695Z,12.21
2023-05-22T02:11:40.171Z,12.19
2023-05-22T02:14:06.970Z,12.15
2023-05-22T02:16:33.598Z,12.14
2023-05-22T02:19:01.384Z,12.13
2023-05-22T02:21:27.994Z,12.11
2023-05-22T02:23:54.491Z,12.12
2023-05-22T02:26:21.006Z,12.11
2023-05-22T02:28:49.306Z,12.12
2023-05-22T02:31:16.422Z,12.14
2023-05-22T02:33:43.438Z,12.15
2023-05-22T02:36:10.350Z,12.15
2023-05-22T02:38:37.004Z,12.16
2023-05-22T02:41:03.644Z,12.15
2023-05-22T02:43:30.145Z,12.16
2023-05-22T02:45:56.735Z,12.16
2023-05-22T02:48:23.291Z,12.16
2023-05-22T02:50:49.899Z,12.18
2023-05-22T02:53:16.696Z,12.20
2023-05-22T02:55:43.425Z,12.23
2023-05-22T02:58:11.441Z,12.27
2023-05-22T03:00:41.426Z,12.29
2023-05-22T03:03:08.318Z,12.31
2023-05-22T03:05:34.884Z,12.32
2023-05-22T03:08:01.469Z,12.34
2023-05-22T03:10:28.175Z,12.37
2023-05-22T03:12:54.775Z,12.34
2023-05-22T03:15:21.593Z,12.39
2023-05-22T03:17:49.985Z,12.39
2023-05-22T03:20:16.671Z,12.42
2023-05-22T03:22:44.287Z,12.42
2023-05-22T03:25:11.576Z,12.41
2023-05-22T03:27:39.809Z,12.38
2023-05-22T03:30:07.667Z,12.41
2023-05-22T03:32:36.772Z,12.39
2023-05-22T03:35:05.294Z,12.40
2023-05-22T03:37:31.962Z,12.38
2023-05-22T03:39:58.699Z,12.35
2023-05-22T03:42:28.679Z,12.31
2023-05-22T03:44:56.465Z,12.31
2023-05-22T03:47:23.953Z,12.31
2023-05-22T03:49:51.135Z,12.32
2023-05-22T03:52:17.640Z,12.32
2023-05-22T03:54:44.177Z,12.33
2023-05-22T03:57:10.773Z,12.33
2023-05-22T03:59:37.264Z,12.34
2023-05-22T04:02:04.032Z,12.36
2023-05-22T04:04:30.720Z,12.38
2023-05-22T04:06:57.242Z,12.39
2023-05-22T04:09:26.502Z,12.34
2023-05-22T04:11:53.044Z,12.42
2023-05-22T04:14:19.574Z,12.43
2023-05-22T04:16:47.147Z,12.46
2023-05-22T04:19:14.417Z,12.49
2023-05-22T04:21:41.291Z,12.51
2023-05-22T04:24:07.960Z,12.52
2023-05-22T04:26:34.883Z,12.53
2023-05-22T04:29:02.076Z,12.54
2023-05-22T04:31:28.689Z,12.54
2023-05-22T04:33:55.377Z,12.55
2023-05-22T04:36:22.383Z,12.59
2023-05-22T04:38:50.153Z,12.62
2023-05-22T04:41:16.707Z,12.66
2023-05-22T04:43:44.014Z,12.71
2023-05-22T04:46:10.786Z,12.76
2023-05-22T04:48:37.434Z,12.76
2023-05-22T04:51:04.945Z,12.82
2023-05-22T04:53:31.574Z,12.84
2023-05-22T04:55:58.169Z,12.85
2023-05-22T04:58:25.013Z,12.88
2023-05-22T05:00:51.624Z,12.90
2023-05-22T05:03:18.282Z,12.93
2023-05-22T05:05:44.938Z,12.93
2023-05-22T05:08:12.027Z,12.90
2023-05-22T05:10:39.278Z,12.91
2023-05-22T05:13:06.024Z,12.92
2023-05-22T05:15:37.189Z,12.94
2023-05-22T05:18:03.925Z,12.96
2023-05-22T05:20:30.474Z,12.97
2023-05-22T05:22:57.181Z,12.99
2023-05-22T05:25:23.758Z,13.02
2023-05-22T05:27:50.296Z,13.04
2023-05-22T05:30:19.579Z,13.06
2023-05-22T05:33:19.227Z,13.10
2023-05-22T05:36:06.247Z,13.13
2023-05-22T05:38:34.370Z,13.16
2023-05-22T05:41:01.038Z,13.20
2023-05-22T05:43:27.775Z,13.24
2023-05-22T05:45:58.583Z,13.27
2023-05-22T05:48:25.302Z,13.36
2023-05-22T05:50:52.113Z,13.40
2023-05-22T05:53:19.256Z,13.44
2023-05-22T05:55:51.961Z,13.45
2023-05-22T05:58:19.349Z,13.45
2023-05-22T06:00:57.784Z,13.49
2023-05-22T06:03:24.615Z,13.51
2023-05-22T06:05:59.371Z,13.54
2023-05-22T06:08:46.158Z,13.62
2023-05-22T06:11:12.823Z,13.67
2023-05-22T06:13:50.196Z,13.72
2023-05-22T06:16:16.832Z,13.74
2023-05-22T06:18:43.437Z,13.77
2023-05-22T06:21:10.080Z,13.79
2023-05-22T06:23:36.610Z,13.81
2023-05-22T06:26:03.524Z,13.81
2023-05-22T06:28:30.273Z,13.83
2023-05-22T06:30:58.808Z,13.84
2023-05-22T06:33:30.670Z,13.84
2023-05-22T06:35:57.546Z,13.88
2023-05-22T06:38:24.183Z,13.91
2023-05-22T06:40:50.718Z,13.92
2023-05-22T06:43:23.267Z,13.94
2023-05-22T06:45:54.297Z,13.98
2023-05-22T06:48:40.144Z,14.02
2023-05-22T06:51:14.577Z,14.01
2023-05-22T06:53:41.814Z,14.02
2023-05-22T06:56:13.743Z,14.04
2023-05-22T06:58:49.446Z,14.08
2023-05-22T07:01:16.040Z,14.09
2023-05-22T07:03:51.158Z,14.06
2023-05-22T07:06:37.967Z,14.09
2023-05-22T07:09:06.087Z,14.08
2023-05-22T07:11:33.213Z,14.07
2023-05-22T07:14:01.209Z,14.02
2023-05-22T07:16:27.841Z,14.08
2023-05-22T07:18:55.328Z,14.08
2023-05-22T07:21:22.176Z,14.08
2023-05-22T07:23:48.737Z,14.06
2023-05-22T07:26:15.344Z,14.11
2023-05-22T07:28:49.042Z,14.10
2023-05-22T07:31:16.101Z,14.10
2023-05-22T07:33:44.571Z,14.10
2023-05-22T07:36:11.330Z,14.09
2023-05-22T07:38:40.758Z,14.08
2023-05-22T07:41:07.337Z,14.08
2023-05-22T07:43:34.785Z,14.07
2023-05-22T07:46:01.764Z,14.02
2023-05-22T07:48:35.201Z,13.96
2023-05-22T07:51:01.733Z,14.01
2023-05-22T07:53:28.301Z,14.03
2023-05-22T07:55:57.717Z,14.04
2023-05-22T07:58:24.962Z,14.05
2023-05-22T08:00:52.084Z,14.06
2023-05-22T08:03:19.158Z,14.07
2023-05-22T08:05:47.051Z,14.07
2023-05-22T08:08:13.658Z,14.04
2023-05-22T08:13:11.316Z,14.07
2023-05-22T08:15:37.918Z,14.05
2023-05-22T08:18:04.542Z,14.10
2023-05-22T08:20:31.285Z,14.13
2023-05-22T08:22:57.826Z,14.17
2023-05-22T08:25:24.624Z,14.20
2023-05-22T08:27:51.135Z,14.24
2023-05-22T08:30:17.948Z,14.29
2023-05-22T08:32:44.531Z,14.32
2023-05-22T08:35:11.163Z,14.38
2023-05-22T08:37:37.645Z,14.45
2023-05-22T08:40:04.922Z,14.51
2023-05-22T08:42:31.476Z,14.58
2023-05-22T08:44:58.089Z,14.59
2023-05-22T08:47:25.656Z,14.64
2023-05-22T08:49:54.102Z,14.61
2023-05-22T08:52:30.417Z,14.72
2023-05-22T08:54:57.756Z,14.75
2023-05-22T08:57:24.656Z,14.79
2023-05-22T08:59:51.534Z,14.84
2023-05-22T09:02:18.199Z,14.83
2023-05-22T09:04:44.736Z,14.83
2023-05-22T09:07:11.261Z,14.82
2023-05-22T09:09:41.452Z,14.84
2023-05-22T09:12:09.909Z,14.91
2023-05-22T09:14:40.430Z,14.97
2023-05-22T09:17:08.998Z,14.97
2023-05-22T09:19:35.934Z,15.12
2023-05-22T09:22:04.123Z,15.19
2023-05-22T09:24:31.205Z,15.25
2023-05-22T09:27:02.939Z,15.31
2023-05-22T09:29:29.448Z,15.39
2023-05-22T09:31:56.046Z,15.48
2023-05-22T09:34:29.055Z,15.61
2023-05-22T09:37:02.248Z,15.77
2023-05-22T09:39:38.982Z,15.87
2023-05-22T09:42:05.820Z,16.07
2023-05-22T09:44:32.422Z,16.17
2023-05-22T09:46:58.950Z,16.22
2023-05-22T09:49:25.519Z,16.25
2023-05-22T09:51:54.929Z,16.28
2023-05-22T09:54:25.117Z,16.30
2023-05-22T09:56:56.236Z,16.29
2023-05-22T09:59:27.775Z,16.26
2023-05-22T10:01:54.672Z,16.24
2023-05-22T10:04:22.663Z,16.18
2023-05-22T10:06:52.665Z,16.11
2023-05-22T10:09:24.227Z,16.15
2023-05-22T10:11:54.962Z,16.12
2023-05-22T10:14:22.333Z,16.09
2023-05-22T10:16:49.102Z,16.12
2023-05-22T10:19:17.338Z,16.17
2023-05-22T10:21:46.239Z,16.16
2023-05-22T10:24:13.772Z,16.16
2023-05-22T10:26:41.596Z,16.17
2023-05-22T10:29:14.728Z,16.14
2023-05-22T10:31:48.799Z,16.13
2023-05-22T10:34:42.206Z,16.10
2023-05-22T10:37:31.214Z,16.06
2023-05-22T10:40:09.530Z,16.10
2023-05-22T10:42:38.078Z,16.09
2023-05-22T10:45:07.660Z,16.09
2023-05-22T10:47:34.523Z,16.20
2023-05-22T10:50:09.709Z,16.21
2023-05-22T10:52:38.147Z,16.26
2023-05-22T10:55:09.644Z,16.29
2023-05-22T10:57:39.700Z,16.35
2023-05-22T11:00:08.399Z,16.34
2023-05-22T11:02:44.563Z,16.41
2023-05-22T11:05:18.734Z,16.57
2023-05-22T11:07:45.394Z,16.62
2023-05-22T11:10:11.925Z,16.67
2023-05-22T11:12:38.532Z,16.71
2023-05-22T11:15:07.934Z,16.67
2023-05-22T11:17:40.118Z,16.73
2023-05-22T11:20:13.530Z,16.70
2023-05-22T11:22:49.443Z,16.75
2023-05-22T11:25:17.938Z,16.76
2023-05-22T11:27:45.029Z,16.81
2023-05-22T11:30:12.263Z,16.89
2023-05-22T11:32:40.326Z,16.96
2023-05-22T11:35:07.655Z,17.02
2023-05-22T11:37:41.111Z,17.13
2023-05-22T11:40:09.173Z,17.18
2023-05-22T11:42:36.703Z,17.27
2023-05-22T11:45:04.933Z,17.34
2023-05-22T11:47:31.626Z,17.43
2023-05-22T11:49:58.321Z,17.50
2023-05-22T11:52:24.931Z,17.59
2023-05-22T11:54:52.318Z,17.67
2023-05-22T11:57:19.523Z,17.76
2023-05-22T11:59:47.049Z,17.75
2023-05-22T12:02:13.890Z,17.70
2023-05-22T12:04:40.525Z,17.68
2023-05-22T12:07:07.946Z,17.66
2023-05-22T12:09:38.272Z,17.65
2023-05-22T12:12:05.094Z,17.67
2023-05-22T12:14:31.965Z,17.69
2023-05-22T12:16:59.042Z,17.74
2023-05-22T12:19:26.763Z,17.82
2023-05-22T12:21:54.120Z,17.89
2023-05-22T12:24:20.666Z,17.99
2023-05-22T12:26:53.726Z,18.08
2023-05-22T12:29:23.574Z,18.24
2023-05-22T12:31:51.248Z,18.38
2023-05-22T12:34:18.338Z,18.59
2023-05-22T12:36:46.675Z,18.81
2023-05-22T12:39:17.856Z,19.06
2023-05-22T12:41:47.174Z,19.37
2023-05-22T12:44:16.672Z,19.60
2023-05-22T12:46:43.427Z,19.78
2023-05-22T12:49:10.665Z,19.89
2023-05-22T12:51:37.273Z,20.09
2023-05-22T12:54:04.314Z,20.28
2023-05-22T12:56:31.592Z,20.59
2023-05-22T12:58:58.870Z,20.81
2023-05-22T13:01:26.158Z,21.02
2023-05-22T13:03:52.889Z,21.13
2023-05-22T13:06:20.066Z,21.15
2023-05-22T13:08:46.594Z,21.19
2023-05-22T13:11:13.197Z,21.22
2023-05-22T13:13:39.672Z,21.29
2023-05-22T13:16:06.272Z,21.41
2023-05-22T13:18:32.865Z,21.57
2023-05-22T13:20:59.456Z,21.75
2023-05-22T13:23:26.179Z,21.89
2023-05-22T13:25:52.746Z,22.01
2023-05-22T13:28:19.271Z,22.21
2023-05-22T13:30:45.911Z,22.31
2023-05-22T13:33:12.529Z,22.43
2023-05-22T13:35:39.323Z,22.61
2023-05-22T13:38:06.011Z,22.84
2023-05-22T13:40:32.565Z,23.09
2023-05-22T13:43:00.197Z,23.24
2023-05-22T13:45:26.918Z,23.39
2023-05-22T13:47:53.486Z,23.44
2023-05-22T13:50:20.078Z,23.43
2023-05-22T13:52:46.626Z,23.42
2023-05-22T13:55:13.277Z,23.61
2023-05-22T13:57:40.078Z,23.70
2023-05-22T14:00:07.901Z,23.82
2023-05-22T14:02:34.635Z,24.21
2023-05-22T14:05:01.270Z,24.70
2023-05-22T14:07:31.384Z,24.81
2023-05-22T14:10:00.423Z,24.94
2023-05-22T14:12:27.850Z,25.30
2023-05-22T14:14:54.408Z,25.80
2023-05-22T14:17:20.942Z,26.34
2023-05-22T14:19:47.542Z,26.88
2023-05-22T14:22:14.067Z,27.36
2023-05-22T14:24:40.573Z,27.73
2023-05-22T14:27:07.092Z,27.97
2023-05-22T14:29:33.728Z,28.34
2023-05-22T14:32:04.498Z,28.69
2023-05-22T14:34:31.632Z,29.04
2023-05-22T14:36:58.330Z,29.28
2023-05-22T14:39:25.823Z,29.49
2023-05-22T14:41:55.213Z,29.74
2023-05-22T14:44:21.759Z,29.98
2023-05-22T14:46:49.302Z,30.26
2023-05-22T14:49:15.867Z,30.51
2023-05-22T14:51:42.750Z,30.69
2023-05-22T14:54:09.268Z,30.85
2023-05-22T14:56:35.762Z,31.10
2023-05-22T14:59:02.308Z,31.32
2023-05-22T15:01:28.863Z,31.51
2023-05-22T15:03:55.403Z,31.69
2023-05-22T15:06:21.959Z,31.94
2023-05-22T15:08:48.460Z,31.72
2023-05-22T15:11:15.088Z,31.54
2023-05-22T15:13:41.588Z,31.31
2023-05-22T15:16:08.104Z,30.91
2023-05-22T15:18:34.679Z,30.38
2023-05-22T15:21:01.539Z,29.80
2023-05-22T15:23:28.046Z,29.24
2023-05-22T15:25:54.628Z,28.68
2023-05-22T15:28:21.785Z,28.07
2023-05-22T15:30:48.444Z,27.58
2023-05-22T15:33:15.501Z,27.17
2023-05-22T15:35:42.377Z,26.91
2023-05-22T15:38:08.906Z,26.89
2023-05-22T15:40:35.433Z,27.22
2023-05-22T15:43:02.049Z,27.67
2023-05-22T15:45:28.613Z,27.87
2023-05-22T15:47:55.388Z,27.81
2023-05-22T15:50:21.981Z,27.67
2023-05-22T15:52:48.467Z,27.50
2023-05-22T15:55:15.088Z,27.41
2023-05-22T15:57:41.707Z,27.36
2023-05-22T16:00:08.830Z,27.49
2023-05-22T16:02:35.407Z,27.61
2023-05-22T16:05:02.014Z,27.71
2023-05-22T16:07:28.607Z,28.09
2023-05-22T16:09:55.296Z,28.55
2023-05-22T16:12:22.416Z,28.75
2023-05-22T16:14:49.591Z,29.00
2023-05-22T16:17:16.263Z,29.41
2023-05-22T16:19:42.873Z,29.89
2023-05-22T16:22:09.448Z,30.34
2023-05-22T16:24:36.030Z,30.74
2023-05-22T16:27:02.661Z,30.99
2023-05-22T16:29:29.167Z,30.64
2023-05-22T16:31:56.429Z,29.97
2023-05-22T16:34:23.018Z,29.25
2023-05-22T16:36:49.547Z,28.55
2023-05-22T16:39:16.025Z,27.89
2023-05-22T16:41:42.607Z,27.30
2023-05-22T16:44:09.129Z,26.75
2023-05-22T16:46:35.667Z,26.35
2023-05-22T16:49:02.281Z,26.28
2023-05-22T16:51:28.825Z,26.56
2023-05-22T16:53:55.318Z,26.69
2023-05-22T16:56:21.933Z,27.13
2023-05-22T16:58:48.433Z,27.54
2023-05-22T17:01:15.196Z,27.84
2023-05-22T17:03:41.825Z,28.08
2023-05-22T17:06:08.462Z,27.97
2023-05-22T17:08:35.059Z,27.74
2023-05-22T17:11:01.640Z,27.34
2023-05-22T17:13:30.975Z,26.76
2023-05-22T17:15:57.682Z,26.21
2023-05-22T17:18:24.206Z,25.68
2023-05-22T17:20:51.909Z,25.12
2023-05-22T17:23:18.423Z,24.66
2023-05-22T17:25:45.407Z,24.23
2023-05-22T17:28:12.655Z,23.86
2023-05-22T17:30:39.297Z,23.49
2023-05-22T17:33:06.336Z,23.14
2023-05-22T17:35:32.878Z,22.82
2023-05-22T17:37:59.446Z,22.45
2023-05-22T17:40:39.953Z,22.09
2023-05-22T17:43:11.139Z,21.76
2023-05-22T17:45:37.876Z,21.46
2023-05-22T17:48:04.649Z,21.22
2023-05-22T17:50:31.193Z,20.97
2023-05-22T17:52:58.107Z,20.74
2023-05-22T17:55:24.644Z,20.55
2023-05-22T17:57:51.263Z,20.33
2023-05-22T18:00:18.217Z,20.16
2023-05-22T18:02:44.925Z,19.99
2023-05-22T18:05:11.529Z,19.84
2023-05-22T18:07:38.044Z,19.68
2023-05-22T18:10:05.029Z,19.57
2023-05-22T18:12:32.272Z,19.42
2023-05-22T18:14:59.520Z,19.24
2023-05-22T18:17:26.332Z,19.12
2023-05-22T18:19:52.823Z,18.98
2023-05-22T18:22:19.361Z,18.83
2023-05-22T18:24:45.904Z,18.71
2023-05-22T18:27:12.484Z,18.61
2023-05-22T18:29:39.200Z,18.50
2023-05-22T18:32:05.917Z,18.39
2023-05-22T18:34:32.449Z,18.28
2023-05-22T18:36:58.951Z,18.16
2023-05-22T18:39:25.450Z,18.03
2023-05-22T18:41:51.946Z,17.90
2023-05-22T18:44:18.461Z,17.83
2023-05-22T18:46:45.360Z,17.71
2023-05-22T18:49:11.941Z,17.59
2023-05-22T18:51:38.564Z,17.47
2023-05-22T18:54:05.284Z,17.37
2023-05-22T18:56:31.818Z,17.22
2023-05-22T18:58:58.314Z,17.12
2023-05-22T19:01:25.050Z,17.01
2023-05-22T19:03:51.611Z,16.88
2023-05-22T19:09:00.292Z,16.67
2023-05-22T19:11:27.136Z,16.55
2023-05-22T19:13:54.709Z,16.44
2023-05-22T19:16:21.374Z,16.36
2023-05-22T19:18:48.084Z,16.24
2023-05-22T19:21:14.749Z,16.14
2023-05-22T19:23:41.230Z,16.04
2023-05-22T19:26:07.912Z,15.92
2023-05-22T19:28:34.413Z,15.84
2023-05-22T19:31:01.075Z,15.75
2023-05-22T19:33:27.711Z,15.66
2023-05-22T19:35:54.345Z,15.56
2023-05-22T19:38:20.944Z,15.47
2023-05-22T19:40:47.533Z,15.37
2023-05-22T19:43:14.463Z,15.30
2023-05-22T19:45:41.064Z,15.19
2023-05-22T19:48:07.964Z,15.05
2023-05-22T19:50:34.753Z,14.99
2023-05-22T19:53:01.493Z,14.90
2023-05-22T19:55:28.269Z,14.79
2023-05-22T19:57:54.776Z,14.67
2023-05-22T20:00:21.346Z,14.60
2023-05-22T20:02:48.118Z,14.53
2023-05-22T20:05:14.736Z,14.46
2023-05-22T20:07:44.387Z,14.37
2023-05-22T20:10:11.633Z,14.28
2023-05-22T20:12:38.578Z,14.20
2023-05-22T20:15:05.846Z,14.15
2023-05-22T20:17:33.334Z,14.07
2023-05-22T20:20:00.648Z,13.99
2023-05-22T20:22:27.509Z,13.92
2023-05-22T20:24:54.583Z,13.84
2023-05-22T20:27:21.454Z,13.77
2023-05-22T20:29:48.021Z,13.73
2023-05-22T20:32:14.571Z,13.68
2023-05-22T20:34:41.177Z,13.64
2023-05-22T20:37:07.659Z,13.58
2023-05-22T20:39:34.593Z,13.50
2023-05-22T20:42:01.134Z,13.43
2023-05-22T20:44:28.556Z,13.41
2023-05-22T20:46:55.214Z,13.36
2023-05-22T20:49:21.757Z,13.32
2023-05-22T20:51:48.872Z,13.27
2023-05-22T20:54:18.154Z,13.21
2023-05-22T20:56:44.803Z,13.18
2023-05-22T20:59:11.456Z,13.13
2023-05-22T21:01:38.032Z,13.09
2023-05-22T21:04:04.608Z,13.07
2023-05-22T21:06:31.159Z,13.01
2023-05-22T21:08:57.717Z,12.96
2023-05-22T21:11:24.817Z,12.90
2023-05-22T21:13:51.380Z,12.87
2023-05-22T21:16:17.960Z,12.84
2023-05-22T21:18:44.626Z,12.80
2023-05-22T21:21:11.342Z,12.74
2023-05-22T21:23:37.946Z,12.71
2023-05-22T21:26:04.572Z,12.68
2023-05-22T21:28:31.230Z,12.64
2023-05-22T21:30:57.779Z,12.59
2023-05-22T21:33:24.379Z,12.55
2023-05-22T21:35:50.874Z,12.51
2023-05-22T21:38:17.405Z,12.48
2023-05-22T21:40:43.994Z,12.45
2023-05-22T21:43:10.531Z,12.41
2023-05-22T21:45:37.266Z,12.38
2023-05-22T21:48:03.976Z,12.32
2023-05-22T21:50:30.799Z,12.31
2023-05-22T21:52:57.326Z,12.28
2023-05-22T21:55:23.952Z,12.25
2023-05-22T21:57:50.433Z,12.23
2023-05-22T22:00:17.386Z,12.21
2023-05-22T22:02:44.104Z,12.18
2023-05-22T22:05:10.638Z,12.16
2023-05-22T22:07:38.293Z,12.14
2023-05-22T22:10:05.334Z,12.12
2023-05-22T22:12:31.906Z,12.09
2023-05-22T22:14:58.537Z,12.05
2023-05-22T22:17:25.092Z,12.04
2023-05-22T22:19:51.627Z,12.00
2023-05-22T22:22:18.269Z,11.97
2023-05-22T22:24:46.961Z,11.93
2023-05-22T22:27:14.710Z,11.89
2023-05-22T22:29:41.276Z,11.86
2023-05-22T22:32:07.869Z,11.85
2023-05-22T22:34:34.468Z,11.82
2023-05-22T22:37:00.978Z,11.79
2023-05-22T22:39:27.519Z,11.75
2023-05-22T22:41:54.115Z,11.73
2023-05-22T22:44:20.967Z,11.68
2023-05-22T22:46:47.462Z,11.66
2023-05-22T22:49:14.016Z,11.61
2023-05-22T22:51:40.493Z,11.56
2023-05-22T22:54:07.014Z,11.52
2023-05-22T22:56:33.851Z,11.48
2023-05-22T22:59:00.401Z,11.43
2023-05-22T23:01:26.938Z,11.40
2023-05-22T23:03:53.600Z,11.39
2023-05-22T23:06:20.194Z,11.36
2023-05-22T23:08:46.761Z,11.32
2023-05-22T23:11:13.310Z,11.29
2023-05-22T23:13:39.992Z,11.27
2023-05-22T23:16:06.763Z,11.26
2023-05-22T23:18:33.390Z,11.24
2023-05-22T23:20:59.934Z,11.23
2023-05-22T23:23:26.417Z,11.21
2023-05-22T23:25:52.995Z,11.18
2023-05-22T23:28:19.488Z,11.10
2023-05-22T23:30:45.973Z,11.15
2023-05-22T23:33:12.505Z,11.12
2023-05-22T23:35:39.267Z,11.10
2023-05-22T23:38:06.405Z,11.09
2023-05-22T23:40:32.944Z,11.07
2023-05-22T23:42:59.470Z,11.04
2023-05-22T23:45:26.041Z,11.02
2023-05-22T23:47:52.580Z,11.01
2023-05-22T23:50:19.092Z,10.99
2023-05-22T23:52:45.642Z,10.97
2023-05-22T23:55:13.102Z,10.95
2023-05-22T23:57:39.650Z,10.93
